Mount Uniacke, Canada
Current Conditions -  °F | °C
As of 4:00 PM on Thursday 23 Oct 2014 (Local Time) from CYHZ Reporting Station
Light Fog Light Fog  
Wind Chill: 52°   Ceiling: 800
Heat Index: 52°   Visibility: 5mi
Dew Point: 50°   Wind: 16mph
Humidity: 94%   Direction: 80°E
Pressure: 29.91"   Gusts: 26mph
Location:  44.88°N, 63.83°W
Report Text: CYHZ 231900Z 08014G23KT 5SM PRFG BR OVC008 11/10 A2991 RMK NS8 SLP131
Loading
Personal Weather Stations






























Interactive Weather Map New forecast layout! Learn more

10-Day Weather Forecast

Advertisements
Track Severe Weather on mobile